Terminal Aerodrome Forecast
Issued by NWS

Home | Current Version | Previous Version | Text Only | Print | Product List | Glossary On
Versions: 1 2 3 4 5 6 7 8 9 10 11 12 13 14 15 16 17 18 19 20 21 22 23 24 25
000
FTUS45 KBOI 171720
TAFJER
TAF
KJER 171720Z 1718/1818 06008KT P6SM BKN200
     FM180500 05006KT P6SM VCSH SCT080 OVC150
     FM181600 24011G23KT P6SM FEW110 BKN200 PROB30 1816/1818
      22008G16KT P6SM -SHRA BKN110=

USA.gov is the U.S. government's official web portal to all federal, state and local government web resources and services.